Time;durP1;ratioP1;P1;durP2;ratioP2;P2;SDS_P1;SDS_P2;PMS_P1;PMS_P2;Temp;Humidity;BMP_temperature;BMP_pressure;BME280_temperature;BME280_humidity;BME280_pressure;Samples;Min_cycle;Max_cycle;Signal;HPM_P1;HPM_P2
2023/07/23 08:05:53;;;;;;;25.30;22.90;;;41.40;76.00;;;;;;5798742;23;20499;-94
2023/07/23 08:08:44;;;;;;;26.83;24.13;;;42.00;74.90;;;;;;4939754;29;20088;-93
2023/07/23 08:11:12;;;;;;;25.95;23.67;;;41.10;74.20;;;;;;4947671;28;20496;-89
2023/07/23 08:13:38;;;;;;;26.10;23.58;;;40.70;73.80;;;;;;4942220;28;20130;-88
2023/07/23 08:16:06;;;;;;;28.17;25.02;;;40.60;73.00;;;;;;4946068;29;20039;-91
2023/07/23 08:18:39;;;;;;;26.90;24.08;;;40.20;73.80;;;;;;4961806;28;20042;-95
2023/07/23 08:21:06;;;;;;;25.40;23.40;;;40.10;74.00;;;;;;4948078;28;20034;-95
2023/07/23 08:23:34;;;;;;;24.25;22.55;;;40.30;71.00;;;;;;4944836;29;20039;-96
2023/07/23 08:26:03;;;;;;;24.98;23.20;;;40.50;69.40;;;;;;4953893;28;20031;-95
2023/07/23 08:31:18;;;;;;;24.63;22.90;;;40.30;67.20;;;;;;5393074;23;20047;-94
2023/07/23 08:33:53;;;;;;;24.38;22.70;;;40.20;68.50;;;;;;4940735;29;20074;-94
2023/07/23 08:36:31;;;;;;;25.10;23.20;;;41.00;65.70;;;;;;4954206;29;20031;-94
2023/07/23 08:39:00;;;;;;;24.48;22.42;;;40.90;63.90;;;;;;4941688;29;20039;-94
2023/07/23 08:41:41;;;;;;;25.50;23.15;;;40.90;65.00;;;;;;4941694;29;20095;-94
2023/07/23 08:44:12;;;;;;;25.70;23.75;;;41.20;65.90;;;;;;4937690;29;20046;-94
2023/07/23 08:46:46;;;;;;;26.77;24.05;;;41.50;61.90;;;;;;4940659;29;20035;-94
2023/07/23 08:49:17;;;;;;;24.50;22.75;;;41.70;61.50;;;;;;4939838;29;20413;-94
2023/07/23 08:51:50;;;;;;;26.40;23.92;;;41.50;62.70;;;;;;4940938;29;20078;-94
2023/07/23 08:54:37;;;;;;;25.85;23.80;;;41.40;63.40;;;;;;4957271;29;20035;-95
2023/07/23 08:57:08;;;;;;;25.80;23.40;;;41.40;62.40;;;;;;4939958;29;20045;-95
2023/07/23 08:59:42;;;;;;;26.35;23.70;;;41.40;61.90;;;;;;4939779;29;20523;-94
2023/07/23 09:02:13;;;;;;;25.38;23.48;;;41.90;60.80;;;;;;4940058;29;20039;-95
2023/07/23 09:04:40;;;;;;;26.63;23.90;;;41.70;61.80;;;;;;4942994;29;20038;-95
2023/07/23 09:07:10;;;;;;;24.88;22.88;;;41.90;62.30;;;;;;4940761;29;20035;-94
2023/07/23 09:09:38;;;;;;;26.40;24.17;;;42.10;62.00;;;;;;4941134;29;20047;-94
2023/07/23 09:12:33;;;;;;;;;;;41.70;61.70;;;;;;4994909;23;20193;-95
2023/07/23 09:15:10;;;;;;;25.40;23.05;;;42.50;61.10;;;;;;4950829;29;19907;-94
2023/07/23 09:17:37;;;;;;;25.65;23.40;;;42.80;60.20;;;;;;4929687;29;20036;-94
2023/07/23 09:20:09;;;;;;;25.40;23.35;;;42.90;59.30;;;;;;4913265;29;20059;-94
2023/07/23 10:07:39;;;;;;;25.77;23.77;;;41.20;60.20;;;;;;4898358;29;20044;-93
2023/07/23 10:11:04;;;;;;;26.20;24.10;;;41.40;59.30;;;;;;4903753;29;20063;-93
2023/07/23 10:13:54;;;;;;;;;;;;;;;;;;;;;
2023/07/23 10:16:40;;;;;;;27.10;24.48;;;40.60;59.90;;;;;;4878520;29;20049;-93
2023/07/23 10:19:14;;;;;;;26.40;24.02;;;40.70;60.30;;;;;;4874383;29;20043;-93
2023/07/23 10:46:10;;;;;;;30.60;26.65;;;41.40;59.60;;;;;;5277546;23;20062;-93
2023/07/23 23:29:27;;;;;;;20.67;17.00;;;28.50;99.90;;;;;;6087493;23;20989;31
2023/07/23 23:31:53;;;;;;;22.15;15.65;;;28.50;99.90;;;;;;4913905;29;20083;-93
2023/07/23 23:34:30;;;;;;;18.23;16.20;;;28.50;99.90;;;;;;4927762;29;20040;-93
2023/07/23 23:36:59;;;;;;;28.33;18.38;;;28.50;99.90;;;;;;4920441;29;20164;-92
2023/07/23 23:39:26;;;;;;;25.17;17.13;;;28.40;99.90;;;;;;4904304;29;20036;-93
2023/07/23 23:41:52;;;;;;;25.55;17.38;;;28.40;99.90;;;;;;4904913;29;20044;-94
2023/07/23 23:44:18;;;;;;;23.48;16.98;;;28.40;99.90;;;;;;4893230;29;20037;-93
2023/07/23 23:46:45;;;;;;;21.42;16.80;;;28.20;99.90;;;;;;4884865;29;20115;-91
2023/07/23 23:49:12;;;;;;;18.20;16.20;;;28.10;99.90;;;;;;4900443;29;20633;-92
2023/07/23 23:51:39;;;;;;;24.60;14.82;;;28.00;99.90;;;;;;4884787;29;20491;-91
2023/07/23 23:54:06;;;;;;;26.60;16.00;;;27.80;99.90;;;;;;4884795;29;20586;-93
2023/07/23 23:56:32;;;;;;;24.08;15.43;;;27.70;99.90;;;;;;4890124;29;20096;-92
2023/07/23 23:58:59;;;;;;;23.67;15.65;;;27.50;99.90;;;;;;4903242;29;20072;-92
